sensor_id;sensor_type;location;lat;lon;timestamp;temperature;humidity
3638;DHT22;1835;50.068;8.154;2023-03-01T00:01:25;0.80;99.90
3638;DHT22;1835;50.068;8.154;2023-03-01T00:03:55;0.70;99.90
3638;DHT22;1835;50.068;8.154;2023-03-01T00:06:24;0.70;99.90
3638;DHT22;1835;50.068;8.154;2023-03-01T00:08:54;0.80;99.90
3638;DHT22;1835;50.068;8.154;2023-03-01T00:11:24;0.70;99.90
3638;DHT22;1835;50.068;8.154;2023-03-01T00:13:56;0.60;99.90
3638;DHT22;1835;50.068;8.154;2023-03-01T00:16:28;0.60;99.90
3638;DHT22;1835;50.068;8.154;2023-03-01T00:18:58;0.50;99.90
3638;DHT22;1835;50.068;8.154;2023-03-01T00:21:26;0.60;99.90
3638;DHT22;1835;50.068;8.154;2023-03-01T00:23:55;0.60;99.90
3638;DHT22;1835;50.068;8.154;2023-03-01T00:26:25;0.40;99.90
3638;DHT22;1835;50.068;8.154;2023-03-01T00:28:57;0.40;99.90
3638;DHT22;1835;50.068;8.154;2023-03-01T00:31:27;0.30;99.90
3638;DHT22;1835;50.068;8.154;2023-03-01T00:33:58;0.50;99.90
3638;DHT22;1835;50.068;8.154;2023-03-01T00:36:28;0.50;99.90
3638;DHT22;1835;50.068;8.154;2023-03-01T00:38:58;0.70;99.90
3638;DHT22;1835;50.068;8.154;2023-03-01T00:41:26;0.70;99.90
3638;DHT22;1835;50.068;8.154;2023-03-01T00:43:56;0.60;99.90
3638;DHT22;1835;50.068;8.154;2023-03-01T00:46:25;0.50;99.90
3638;DHT22;1835;50.068;8.154;2023-03-01T00:48:54;0.60;99.90
3638;DHT22;1835;50.068;8.154;2023-03-01T00:51:25;0.60;99.90
3638;DHT22;1835;50.068;8.154;2023-03-01T00:53:56;0.50;99.90
3638;DHT22;1835;50.068;8.154;2023-03-01T00:56:25;0.70;99.90
3638;DHT22;1835;50.068;8.154;2023-03-01T00:58:55;0.70;99.90
3638;DHT22;1835;50.068;8.154;2023-03-01T01:01:26;0.60;99.90
3638;DHT22;1835;50.068;8.154;2023-03-01T01:03:59;0.60;99.90
3638;DHT22;1835;50.068;8.154;2023-03-01T01:06:30;0.70;99.90
3638;DHT22;1835;50.068;8.154;2023-03-01T01:09:00;0.80;99.90
3638;DHT22;1835;50.068;8.154;2023-03-01T01:11:29;0.80;99.90
3638;DHT22;1835;50.068;8.154;2023-03-01T01:13:59;0.80;99.90
3638;DHT22;1835;50.068;8.154;2023-03-01T01:16:28;0.90;99.90
3638;DHT22;1835;50.068;8.154;2023-03-01T01:18:57;0.90;99.90
3638;DHT22;1835;50.068;8.154;2023-03-01T01:21:25;0.50;99.90
3638;DHT22;1835;50.068;8.154;2023-03-01T01:23:55;0.60;99.90
3638;DHT22;1835;50.068;8.154;2023-03-01T01:26:25;0.60;99.90
3638;DHT22;1835;50.068;8.154;2023-03-01T01:28:56;0.80;99.90
3638;DHT22;1835;50.068;8.154;2023-03-01T01:31:26;0.60;99.90
3638;DHT22;1835;50.068;8.154;2023-03-01T01:33:57;0.60;99.90
3638;DHT22;1835;50.068;8.154;2023-03-01T01:36:26;0.80;99.90
3638;DHT22;1835;50.068;8.154;2023-03-01T01:38:56;0.70;99.90
3638;DHT22;1835;50.068;8.154;2023-03-01T01:41:26;0.70;99.90
3638;DHT22;1835;50.068;8.154;2023-03-01T01:44:13;0.80;99.90
3638;DHT22;1835;50.068;8.154;2023-03-01T01:46:46;0.70;99.90
3638;DHT22;1835;50.068;8.154;2023-03-01T01:49:22;0.70;99.90
3638;DHT22;1835;50.068;8.154;2023-03-01T01:51:58;0.70;99.90
3638;DHT22;1835;50.068;8.154;2023-03-01T01:54:34;0.70;99.90
3638;DHT22;1835;50.068;8.154;2023-03-01T01:57:09;0.50;99.90
3638;DHT22;1835;50.068;8.154;2023-03-01T01:59:42;0.60;99.90
3638;DHT22;1835;50.068;8.154;2023-03-01T02:02:13;0.50;99.90
3638;DHT22;1835;50.068;8.154;2023-03-01T02:04:41;0.30;99.90
3638;DHT22;1835;50.068;8.154;2023-03-01T02:07:14;0.40;99.90
3638;DHT22;1835;50.068;8.154;2023-03-01T02:09:46;0.50;99.90
3638;DHT22;1835;50.068;8.154;2023-03-01T02:12:17;0.50;99.90
3638;DHT22;1835;50.068;8.154;2023-03-01T02:14:47;0.50;99.90
3638;DHT22;1835;50.068;8.154;2023-03-01T02:17:17;0.60;99.90
3638;DHT22;1835;50.068;8.154;2023-03-01T02:19:56;0.60;99.90
3638;DHT22;1835;50.068;8.154;2023-03-01T02:22:35;0.60;99.90
3638;DHT22;1835;50.068;8.154;2023-03-01T02:25:18;0.60;99.90
3638;DHT22;1835;50.068;8.154;2023-03-01T02:27:56;0.70;99.90
3638;DHT22;1835;50.068;8.154;2023-03-01T02:30:27;0.70;99.90
3638;DHT22;1835;50.068;8.154;2023-03-01T02:32:57;0.60;99.90
3638;DHT22;1835;50.068;8.154;2023-03-01T02:35:31;0.70;99.90
3638;DHT22;1835;50.068;8.154;2023-03-01T02:38:01;0.70;99.90
3638;DHT22;1835;50.068;8.154;2023-03-01T02:40:33;0.50;99.90
3638;DHT22;1835;50.068;8.154;2023-03-01T02:43:04;0.40;99.90
3638;DHT22;1835;50.068;8.154;2023-03-01T02:45:36;0.40;99.90
3638;DHT22;1835;50.068;8.154;2023-03-01T02:48:04;0.40;99.90
3638;DHT22;1835;50.068;8.154;2023-03-01T02:50:51;0.50;99.90
3638;DHT22;1835;50.068;8.154;2023-03-01T02:53:28;0.30;99.90
3638;DHT22;1835;50.068;8.154;2023-03-01T02:56:04;0.40;99.90
3638;DHT22;1835;50.068;8.154;2023-03-01T02:58:32;0.40;99.90
3638;DHT22;1835;50.068;8.154;2023-03-01T03:01:09;0.60;99.90
3638;DHT22;1835;50.068;8.154;2023-03-01T03:03:37;0.80;99.90
3638;DHT22;1835;50.068;8.154;2023-03-01T03:06:05;0.90;99.90
3638;DHT22;1835;50.068;8.154;2023-03-01T03:08:33;0.90;99.90
3638;DHT22;1835;50.068;8.154;2023-03-01T03:11:01;0.80;99.90
3638;DHT22;1835;50.068;8.154;2023-03-01T03:13:30;0.90;99.90
3638;DHT22;1835;50.068;8.154;2023-03-01T03:15:58;0.90;99.90
3638;DHT22;1835;50.068;8.154;2023-03-01T03:18:28;0.90;99.90
3638;DHT22;1835;50.068;8.154;2023-03-01T03:20:56;0.90;99.90
3638;DHT22;1835;50.068;8.154;2023-03-01T03:23:25;1.00;99.90
3638;DHT22;1835;50.068;8.154;2023-03-01T03:25:53;0.90;99.90
3638;DHT22;1835;50.068;8.154;2023-03-01T03:28:21;0.90;99.90
3638;DHT22;1835;50.068;8.154;2023-03-01T03:30:51;0.90;99.90
3638;DHT22;1835;50.068;8.154;2023-03-01T03:33:19;0.70;99.90
3638;DHT22;1835;50.068;8.154;2023-03-01T03:35:49;0.80;99.90
3638;DHT22;1835;50.068;8.154;2023-03-01T03:38:19;0.70;99.90
3638;DHT22;1835;50.068;8.154;2023-03-01T03:40:50;0.90;99.90
3638;DHT22;1835;50.068;8.154;2023-03-01T03:43:21;0.90;99.90
3638;DHT22;1835;50.068;8.154;2023-03-01T03:45:50;0.80;99.90
3638;DHT22;1835;50.068;8.154;2023-03-01T03:48:19;0.70;99.90
3638;DHT22;1835;50.068;8.154;2023-03-01T03:50:50;0.80;99.90
3638;DHT22;1835;50.068;8.154;2023-03-01T03:53:21;0.90;99.90
3638;DHT22;1835;50.068;8.154;2023-03-01T03:55:50;0.70;99.90
3638;DHT22;1835;50.068;8.154;2023-03-01T03:58:20;0.80;99.90
3638;DHT22;1835;50.068;8.154;2023-03-01T04:00:51;0.90;99.90
3638;DHT22;1835;50.068;8.154;2023-03-01T04:03:20;0.80;99.90
3638;DHT22;1835;50.068;8.154;2023-03-01T04:05:50;0.90;99.90
3638;DHT22;1835;50.068;8.154;2023-03-01T04:08:19;0.90;99.90
3638;DHT22;1835;50.068;8.154;2023-03-01T04:10:50;0.80;99.90
3638;DHT22;1835;50.068;8.154;2023-03-01T04:13:20;0.70;99.90
3638;DHT22;1835;50.068;8.154;2023-03-01T04:15:50;0.80;99.90
3638;DHT22;1835;50.068;8.154;2023-03-01T04:18:19;0.90;99.90
3638;DHT22;1835;50.068;8.154;2023-03-01T04:20:51;0.80;99.90
3638;DHT22;1835;50.068;8.154;2023-03-01T04:23:22;0.70;99.90
3638;DHT22;1835;50.068;8.154;2023-03-01T04:25:52;0.80;99.90
3638;DHT22;1835;50.068;8.154;2023-03-01T04:28:22;0.70;99.90
3638;DHT22;1835;50.068;8.154;2023-03-01T04:30:51;0.60;99.90
3638;DHT22;1835;50.068;8.154;2023-03-01T04:33:20;0.60;99.90
3638;DHT22;1835;50.068;8.154;2023-03-01T04:35:48;0.60;99.90
3638;DHT22;1835;50.068;8.154;2023-03-01T04:38:19;0.90;99.90
3638;DHT22;1835;50.068;8.154;2023-03-01T04:40:48;0.70;99.90
3638;DHT22;1835;50.068;8.154;2023-03-01T04:43:16;0.80;99.90
3638;DHT22;1835;50.068;8.154;2023-03-01T04:45:44;0.60;99.90
3638;DHT22;1835;50.068;8.154;2023-03-01T04:48:12;0.70;99.90
3638;DHT22;1835;50.068;8.154;2023-03-01T04:50:40;0.80;99.90
3638;DHT22;1835;50.068;8.154;2023-03-01T04:53:08;0.70;99.90
3638;DHT22;1835;50.068;8.154;2023-03-01T04:55:38;0.60;99.90
3638;DHT22;1835;50.068;8.154;2023-03-01T04:58:06;0.60;99.90
3638;DHT22;1835;50.068;8.154;2023-03-01T05:00:34;0.50;99.90
3638;DHT22;1835;50.068;8.154;2023-03-01T05:03:02;0.30;99.90
3638;DHT22;1835;50.068;8.154;2023-03-01T05:05:32;0.20;99.90
3638;DHT22;1835;50.068;8.154;2023-03-01T05:08:04;0.30;99.90
3638;DHT22;1835;50.068;8.154;2023-03-01T05:10:35;0.10;99.90
3638;DHT22;1835;50.068;8.154;2023-03-01T05:13:06;0.00;99.90
3638;DHT22;1835;50.068;8.154;2023-03-01T05:15:35;0.10;99.90
3638;DHT22;1835;50.068;8.154;2023-03-01T05:18:03;0.30;99.90
3638;DHT22;1835;50.068;8.154;2023-03-01T05:20:38;0.20;99.90
3638;DHT22;1835;50.068;8.154;2023-03-01T05:23:06;0.00;99.90
3638;DHT22;1835;50.068;8.154;2023-03-01T05:25:34;0.10;99.90
3638;DHT22;1835;50.068;8.154;2023-03-01T05:28:11;0.10;99.90
3638;DHT22;1835;50.068;8.154;2023-03-01T05:30:39;0.30;99.90
3638;DHT22;1835;50.068;8.154;2023-03-01T05:33:08;0.20;99.90
3638;DHT22;1835;50.068;8.154;2023-03-01T05:35:41;0.40;99.90
3638;DHT22;1835;50.068;8.154;2023-03-01T05:38:09;0.60;99.90
3638;DHT22;1835;50.068;8.154;2023-03-01T05:40:40;0.50;99.90
3638;DHT22;1835;50.068;8.154;2023-03-01T05:43:10;0.40;99.90
3638;DHT22;1835;50.068;8.154;2023-03-01T05:45:40;0.60;99.90
3638;DHT22;1835;50.068;8.154;2023-03-01T05:48:10;0.60;99.90
3638;DHT22;1835;50.068;8.154;2023-03-01T05:50:40;0.60;99.90
3638;DHT22;1835;50.068;8.154;2023-03-01T05:53:11;0.60;99.90
3638;DHT22;1835;50.068;8.154;2023-03-01T05:55:40;0.60;99.90
3638;DHT22;1835;50.068;8.154;2023-03-01T05:58:13;0.70;99.90
3638;DHT22;1835;50.068;8.154;2023-03-01T06:00:44;0.60;99.90
3638;DHT22;1835;50.068;8.154;2023-03-01T06:03:14;0.70;99.90
3638;DHT22;1835;50.068;8.154;2023-03-01T06:05:43;0.70;99.90
3638;DHT22;1835;50.068;8.154;2023-03-01T06:08:12;0.70;99.90
3638;DHT22;1835;50.068;8.154;2023-03-01T06:10:41;0.70;99.90
3638;DHT22;1835;50.068;8.154;2023-03-01T06:13:10;0.80;99.90
3638;DHT22;1835;50.068;8.154;2023-03-01T06:15:38;0.70;99.90
3638;DHT22;1835;50.068;8.154;2023-03-01T06:18:06;0.70;99.90
3638;DHT22;1835;50.068;8.154;2023-03-01T06:20:34;0.80;99.90
3638;DHT22;1835;50.068;8.154;2023-03-01T06:23:02;0.90;99.90
3638;DHT22;1835;50.068;8.154;2023-03-01T06:25:30;1.00;99.90
3638;DHT22;1835;50.068;8.154;2023-03-01T06:27:58;1.00;99.90
3638;DHT22;1835;50.068;8.154;2023-03-01T06:30:29;1.00;99.90
3638;DHT22;1835;50.068;8.154;2023-03-01T06:32:57;0.30;99.90
3638;DHT22;1835;50.068;8.154;2023-03-01T06:35:30;0.10;99.90
3638;DHT22;1835;50.068;8.154;2023-03-01T06:38:00;0.20;99.90
3638;DHT22;1835;50.068;8.154;2023-03-01T06:40:30;0.40;99.90
3638;DHT22;1835;50.068;8.154;2023-03-01T06:42:58;0.60;99.90
3638;DHT22;1835;50.068;8.154;2023-03-01T06:45:28;0.70;99.90
3638;DHT22;1835;50.068;8.154;2023-03-01T06:48:03;0.90;99.90
3638;DHT22;1835;50.068;8.154;2023-03-01T06:50:32;1.20;99.90
3638;DHT22;1835;50.068;8.154;2023-03-01T06:53:01;1.30;99.90
3638;DHT22;1835;50.068;8.154;2023-03-01T06:55:30;1.40;99.90
3638;DHT22;1835;50.068;8.154;2023-03-01T06:57:59;1.60;99.90
3638;DHT22;1835;50.068;8.154;2023-03-01T07:00:30;1.70;99.90
3638;DHT22;1835;50.068;8.154;2023-03-01T07:02:59;1.70;99.90
3638;DHT22;1835;50.068;8.154;2023-03-01T07:05:29;1.80;99.90
3638;DHT22;1835;50.068;8.154;2023-03-01T07:07:57;2.00;99.00
3638;DHT22;1835;50.068;8.154;2023-03-01T07:10:26;2.00;98.70
3638;DHT22;1835;50.068;8.154;2023-03-01T07:12:57;2.30;98.60
3638;DHT22;1835;50.068;8.154;2023-03-01T07:15:26;2.30;98.10
3638;DHT22;1835;50.068;8.154;2023-03-01T07:17:57;2.40;98.00
3638;DHT22;1835;50.068;8.154;2023-03-01T07:20:25;2.40;97.70
3638;DHT22;1835;50.068;8.154;2023-03-01T07:22:54;2.70;97.30
3638;DHT22;1835;50.068;8.154;2023-03-01T07:25:22;2.90;97.00
3638;DHT22;1835;50.068;8.154;2023-03-01T07:27:51;3.00;96.30
3638;DHT22;1835;50.068;8.154;2023-03-01T07:30:20;3.30;96.30
3638;DHT22;1835;50.068;8.154;2023-03-01T07:32:48;4.00;96.10
3638;DHT22;1835;50.068;8.154;2023-03-01T07:35:20;4.60;95.40
3638;DHT22;1835;50.068;8.154;2023-03-01T07:37:48;5.10;93.70
3638;DHT22;1835;50.068;8.154;2023-03-01T07:40:16;5.40;92.40
3638;DHT22;1835;50.068;8.154;2023-03-01T07:42:44;5.80;90.70
3638;DHT22;1835;50.068;8.154;2023-03-01T07:45:12;6.00;90.80
3638;DHT22;1835;50.068;8.154;2023-03-01T07:47:41;6.50;88.40
3638;DHT22;1835;50.068;8.154;2023-03-01T07:50:10;7.00;87.40
3638;DHT22;1835;50.068;8.154;2023-03-01T07:52:39;7.00;85.20
3638;DHT22;1835;50.068;8.154;2023-03-01T07:55:08;7.00;83.90
3638;DHT22;1835;50.068;8.154;2023-03-01T07:57:36;7.40;82.90
3638;DHT22;1835;50.068;8.154;2023-03-01T08:00:05;7.80;81.30
3638;DHT22;1835;50.068;8.154;2023-03-01T08:02:36;8.30;77.40
3638;DHT22;1835;50.068;8.154;2023-03-01T08:05:04;8.70;74.60
3638;DHT22;1835;50.068;8.154;2023-03-01T08:07:33;8.50;73.30
3638;DHT22;1835;50.068;8.154;2023-03-01T08:10:03;8.50;72.80
3638;DHT22;1835;50.068;8.154;2023-03-01T08:12:31;8.90;72.20
3638;DHT22;1835;50.068;8.154;2023-03-01T08:15:00;8.60;69.60
3638;DHT22;1835;50.068;8.154;2023-03-01T08:17:28;8.80;70.10
3638;DHT22;1835;50.068;8.154;2023-03-01T08:19:56;9.10;69.30
3638;DHT22;1835;50.068;8.154;2023-03-01T08:22:24;9.00;68.70
3638;DHT22;1835;50.068;8.154;2023-03-01T08:24:52;9.40;68.20
3638;DHT22;1835;50.068;8.154;2023-03-01T08:27:23;9.50;67.30
3638;DHT22;1835;50.068;8.154;2023-03-01T08:29:51;9.70;65.10
3638;DHT22;1835;50.068;8.154;2023-03-01T08:32:19;10.00;64.30
3638;DHT22;1835;50.068;8.154;2023-03-01T08:34:48;10.40;62.50
3638;DHT22;1835;50.068;8.154;2023-03-01T08:37:16;10.70;60.80
3638;DHT22;1835;50.068;8.154;2023-03-01T08:39:44;11.10;59.40
3638;DHT22;1835;50.068;8.154;2023-03-01T08:42:12;11.20;59.40
3638;DHT22;1835;50.068;8.154;2023-03-01T08:44:41;11.20;59.70
3638;DHT22;1835;50.068;8.154;2023-03-01T08:47:12;11.20;57.00
3638;DHT22;1835;50.068;8.154;2023-03-01T08:49:40;11.10;56.90
3638;DHT22;1835;50.068;8.154;2023-03-01T08:52:08;11.40;55.90
3638;DHT22;1835;50.068;8.154;2023-03-01T08:54:36;11.30;56.90
3638;DHT22;1835;50.068;8.154;2023-03-01T08:57:04;11.20;56.20
3638;DHT22;1835;50.068;8.154;2023-03-01T08:59:32;11.70;56.90
3638;DHT22;1835;50.068;8.154;2023-03-01T09:02:08;12.00;55.10
3638;DHT22;1835;50.068;8.154;2023-03-01T09:04:39;11.90;55.10
3638;DHT22;1835;50.068;8.154;2023-03-01T09:07:08;12.30;53.80
3638;DHT22;1835;50.068;8.154;2023-03-01T09:09:36;12.60;53.80
3638;DHT22;1835;50.068;8.154;2023-03-01T09:12:06;12.40;52.00
3638;DHT22;1835;50.068;8.154;2023-03-01T09:14:34;12.00;52.10
3638;DHT22;1835;50.068;8.154;2023-03-01T09:17:06;12.20;54.70
3638;DHT22;1835;50.068;8.154;2023-03-01T09:19:34;12.50;51.80
3638;DHT22;1835;50.068;8.154;2023-03-01T09:22:03;12.40;51.70
3638;DHT22;1835;50.068;8.154;2023-03-01T09:24:31;13.10;51.80
3638;DHT22;1835;50.068;8.154;2023-03-01T09:26:59;14.00;50.10
3638;DHT22;1835;50.068;8.154;2023-03-01T09:29:27;14.00;47.80
3638;DHT22;1835;50.068;8.154;2023-03-01T09:31:56;13.70;48.90
3638;DHT22;1835;50.068;8.154;2023-03-01T09:34:25;13.40;48.70
3638;DHT22;1835;50.068;8.154;2023-03-01T09:36:53;13.60;49.60
3638;DHT22;1835;50.068;8.154;2023-03-01T09:39:21;13.50;48.60
3638;DHT22;1835;50.068;8.154;2023-03-01T09:42:00;12.80;48.60
3638;DHT22;1835;50.068;8.154;2023-03-01T09:44:34;13.20;49.00
3638;DHT22;1835;50.068;8.154;2023-03-01T09:47:09;13.30;48.80
3638;DHT22;1835;50.068;8.154;2023-03-01T09:49:45;13.60;48.70
3638;DHT22;1835;50.068;8.154;2023-03-01T09:52:25;14.40;49.10
3638;DHT22;1835;50.068;8.154;2023-03-01T09:54:57;13.90;45.70
3638;DHT22;1835;50.068;8.154;2023-03-01T09:57:33;13.50;47.60
3638;DHT22;1835;50.068;8.154;2023-03-01T10:00:19;13.70;48.40
3638;DHT22;1835;50.068;8.154;2023-03-01T10:02:59;14.40;45.80
3638;DHT22;1835;50.068;8.154;2023-03-01T10:05:50;14.50;46.10
3638;DHT22;1835;50.068;8.154;2023-03-01T10:08:31;14.30;45.80
3638;DHT22;1835;50.068;8.154;2023-03-01T10:11:05;13.90;46.10
3638;DHT22;1835;50.068;8.154;2023-03-01T10:13:50;13.90;46.90
3638;DHT22;1835;50.068;8.154;2023-03-01T10:16:26;13.60;47.60
3638;DHT22;1835;50.068;8.154;2023-03-01T10:19:00;14.30;46.40
3638;DHT22;1835;50.068;8.154;2023-03-01T10:21:31;14.60;45.30
3638;DHT22;1835;50.068;8.154;2023-03-01T10:24:11;14.50;44.80
3638;DHT22;1835;50.068;8.154;2023-03-01T10:26:47;14.10;45.90
3638;DHT22;1835;50.068;8.154;2023-03-01T10:29:19;14.20;46.10
3638;DHT22;1835;50.068;8.154;2023-03-01T10:31:53;15.10;45.20
3638;DHT22;1835;50.068;8.154;2023-03-01T10:34:27;14.90;43.00
3638;DHT22;1835;50.068;8.154;2023-03-01T10:37:04;14.50;45.90
3638;DHT22;1835;50.068;8.154;2023-03-01T10:39:37;14.50;45.00
3638;DHT22;1835;50.068;8.154;2023-03-01T10:42:27;14.80;44.60
3638;DHT22;1835;50.068;8.154;2023-03-01T10:44:57;14.50;43.00
3638;DHT22;1835;50.068;8.154;2023-03-01T10:47:27;14.70;44.30
3638;DHT22;1835;50.068;8.154;2023-03-01T10:50:01;14.20;44.10
3638;DHT22;1835;50.068;8.154;2023-03-01T10:52:34;14.30;45.30
3638;DHT22;1835;50.068;8.154;2023-03-01T10:55:19;14.70;43.30
3638;DHT22;1835;50.068;8.154;2023-03-01T10:58:06;15.10;43.40
3638;DHT22;1835;50.068;8.154;2023-03-01T11:00:47;15.70;42.70
3638;DHT22;1835;50.068;8.154;2023-03-01T11:03:19;15.50;42.20
3638;DHT22;1835;50.068;8.154;2023-03-01T11:05:53;16.20;41.50
3638;DHT22;1835;50.068;8.154;2023-03-01T11:08:36;15.50;41.60
3638;DHT22;1835;50.068;8.154;2023-03-01T11:11:24;15.70;40.80
3638;DHT22;1835;50.068;8.154;2023-03-01T11:14:00;14.70;42.00
3638;DHT22;1835;50.068;8.154;2023-03-01T11:16:44;14.10;42.10
3638;DHT22;1835;50.068;8.154;2023-03-01T11:19:19;14.50;41.90
3638;DHT22;1835;50.068;8.154;2023-03-01T11:21:56;14.50;41.20
3638;DHT22;1835;50.068;8.154;2023-03-01T11:24:40;14.50;42.00
3638;DHT22;1835;50.068;8.154;2023-03-01T11:27:17;14.60;43.00
3638;DHT22;1835;50.068;8.154;2023-03-01T11:29:50;14.80;41.60
3638;DHT22;1835;50.068;8.154;2023-03-01T11:32:23;14.80;40.10
3638;DHT22;1835;50.068;8.154;2023-03-01T11:34:57;14.70;40.30
3638;DHT22;1835;50.068;8.154;2023-03-01T11:37:33;14.80;42.90
3638;DHT22;1835;50.068;8.154;2023-03-01T11:40:12;15.20;40.40
3638;DHT22;1835;50.068;8.154;2023-03-01T11:42:53;15.00;40.10
3638;DHT22;1835;50.068;8.154;2023-03-01T11:45:37;14.80;41.00
3638;DHT22;1835;50.068;8.154;2023-03-01T11:48:29;15.30;39.40
3638;DHT22;1835;50.068;8.154;2023-03-01T11:51:22;14.80;40.00
3638;DHT22;1835;50.068;8.154;2023-03-01T11:54:09;14.30;40.20
3638;DHT22;1835;50.068;8.154;2023-03-01T11:56:46;14.80;43.20
3638;DHT22;1835;50.068;8.154;2023-03-01T12:02:50;14.70;41.40
3638;DHT22;1835;50.068;8.154;2023-03-01T12:05:54;14.80;44.30
3638;DHT22;1835;50.068;8.154;2023-03-01T12:08:36;14.60;42.80
3638;DHT22;1835;50.068;8.154;2023-03-01T12:11:16;14.70;42.40
3638;DHT22;1835;50.068;8.154;2023-03-01T12:14:06;13.90;42.60
3638;DHT22;1835;50.068;8.154;2023-03-01T12:17:12;13.90;43.40
3638;DHT22;1835;50.068;8.154;2023-03-01T12:20:06;13.90;42.70
3638;DHT22;1835;50.068;8.154;2023-03-01T12:22:56;13.60;43.40
3638;DHT22;1835;50.068;8.154;2023-03-01T12:25:48;12.80;44.40
3638;DHT22;1835;50.068;8.154;2023-03-01T12:28:36;12.50;44.10
3638;DHT22;1835;50.068;8.154;2023-03-01T12:31:39;11.60;45.10
3638;DHT22;1835;50.068;8.154;2023-03-01T12:34:29;11.50;45.70
3638;DHT22;1835;50.068;8.154;2023-03-01T12:37:18;10.90;46.00
3638;DHT22;1835;50.068;8.154;2023-03-01T12:40:15;10.80;47.30
3638;DHT22;1835;50.068;8.154;2023-03-01T12:42:58;11.00;47.30
3638;DHT22;1835;50.068;8.154;2023-03-01T12:45:54;11.00;46.80
3638;DHT22;1835;50.068;8.154;2023-03-01T12:48:43;11.30;45.80
3638;DHT22;1835;50.068;8.154;2023-03-01T12:51:18;11.80;45.10
3638;DHT22;1835;50.068;8.154;2023-03-01T12:53:49;12.20;45.10
3638;DHT22;1835;50.068;8.154;2023-03-01T12:56:21;12.90;44.80
3638;DHT22;1835;50.068;8.154;2023-03-01T12:58:57;13.10;43.70
3638;DHT22;1835;50.068;8.154;2023-03-01T13:01:39;13.20;43.40
3638;DHT22;1835;50.068;8.154;2023-03-01T13:04:22;13.30;43.90
3638;DHT22;1835;50.068;8.154;2023-03-01T13:07:15;13.40;42.80
3638;DHT22;1835;50.068;8.154;2023-03-01T13:09:51;13.50;42.50
3638;DHT22;1835;50.068;8.154;2023-03-01T13:12:46;13.10;42.50
3638;DHT22;1835;50.068;8.154;2023-03-01T13:15:34;12.70;42.80
3638;DHT22;1835;50.068;8.154;2023-03-01T13:18:27;12.50;43.50
3638;DHT22;1835;50.068;8.154;2023-03-01T13:20:59;12.40;43.70
3638;DHT22;1835;50.068;8.154;2023-03-01T13:23:33;11.50;43.30
3638;DHT22;1835;50.068;8.154;2023-03-01T13:26:10;11.40;44.70
3638;DHT22;1835;50.068;8.154;2023-03-01T13:28:51;11.30;45.20
3638;DHT22;1835;50.068;8.154;2023-03-01T13:34:46;10.50;47.30
3638;DHT22;1835;50.068;8.154;2023-03-01T13:37:36;10.50;47.10
3638;DHT22;1835;50.068;8.154;2023-03-01T13:43:31;10.20;47.70
3638;DHT22;1835;50.068;8.154;2023-03-01T13:46:02;10.20;46.90
3638;DHT22;1835;50.068;8.154;2023-03-01T13:48:37;10.40;48.50
3638;DHT22;1835;50.068;8.154;2023-03-01T13:51:08;10.40;47.30
3638;DHT22;1835;50.068;8.154;2023-03-01T13:53:41;10.20;47.20
3638;DHT22;1835;50.068;8.154;2023-03-01T13:56:15;10.20;47.20
3638;DHT22;1835;50.068;8.154;2023-03-01T13:58:48;10.10;46.50
3638;DHT22;1835;50.068;8.154;2023-03-01T14:01:26;10.00;47.80
3638;DHT22;1835;50.068;8.154;2023-03-01T14:03:59;10.10;48.90
3638;DHT22;1835;50.068;8.154;2023-03-01T14:06:29;10.00;48.60
3638;DHT22;1835;50.068;8.154;2023-03-01T14:09:04;9.60;49.30
3638;DHT22;1835;50.068;8.154;2023-03-01T14:11:51;9.80;50.60
3638;DHT22;1835;50.068;8.154;2023-03-01T14:14:44;9.90;50.60
3638;DHT22;1835;50.068;8.154;2023-03-01T14:17:43;10.00;48.30
3638;DHT22;1835;50.068;8.154;2023-03-01T14:20:20;9.90;49.50
3638;DHT22;1835;50.068;8.154;2023-03-01T14:22:51;9.80;51.70
3638;DHT22;1835;50.068;8.154;2023-03-01T14:25:24;9.80;52.10
3638;DHT22;1835;50.068;8.154;2023-03-01T14:27:59;9.70;52.20
3638;DHT22;1835;50.068;8.154;2023-03-01T14:30:34;9.50;52.90
3638;DHT22;1835;50.068;8.154;2023-03-01T14:33:15;9.60;52.20
3638;DHT22;1835;50.068;8.154;2023-03-01T14:35:54;9.30;52.20
3638;DHT22;1835;50.068;8.154;2023-03-01T14:38:29;9.40;51.70
3638;DHT22;1835;50.068;8.154;2023-03-01T14:41:03;9.30;52.20
3638;DHT22;1835;50.068;8.154;2023-03-01T14:43:35;9.30;52.20
3638;DHT22;1835;50.068;8.154;2023-03-01T14:46:05;9.30;51.90
3638;DHT22;1835;50.068;8.154;2023-03-01T14:48:33;9.30;51.90
3638;DHT22;1835;50.068;8.154;2023-03-01T14:51:01;9.30;52.50
3638;DHT22;1835;50.068;8.154;2023-03-01T14:53:32;9.10;53.00
3638;DHT22;1835;50.068;8.154;2023-03-01T14:56:16;9.20;52.20
3638;DHT22;1835;50.068;8.154;2023-03-01T14:58:51;9.10;53.00
3638;DHT22;1835;50.068;8.154;2023-03-01T15:01:19;9.10;52.60
3638;DHT22;1835;50.068;8.154;2023-03-01T15:03:50;9.00;51.90
3638;DHT22;1835;50.068;8.154;2023-03-01T15:06:21;9.00;51.40
3638;DHT22;1835;50.068;8.154;2023-03-01T15:08:53;9.20;51.70
3638;DHT22;1835;50.068;8.154;2023-03-01T15:11:26;9.30;51.30
3638;DHT22;1835;50.068;8.154;2023-03-01T15:13:58;9.30;52.10
3638;DHT22;1835;50.068;8.154;2023-03-01T15:16:27;9.20;52.10
3638;DHT22;1835;50.068;8.154;2023-03-01T15:18:59;9.10;53.00
3638;DHT22;1835;50.068;8.154;2023-03-01T15:21:31;8.90;52.60
3638;DHT22;1835;50.068;8.154;2023-03-01T15:24:05;9.00;53.50
3638;DHT22;1835;50.068;8.154;2023-03-01T15:26:50;8.80;53.60
3638;DHT22;1835;50.068;8.154;2023-03-01T15:29:24;8.80;53.60
3638;DHT22;1835;50.068;8.154;2023-03-01T15:31:58;8.70;54.60
3638;DHT22;1835;50.068;8.154;2023-03-01T15:34:30;8.80;54.50
3638;DHT22;1835;50.068;8.154;2023-03-01T15:37:00;8.90;54.60
3638;DHT22;1835;50.068;8.154;2023-03-01T15:39:35;8.40;54.30
3638;DHT22;1835;50.068;8.154;2023-03-01T15:42:07;8.30;54.90
3638;DHT22;1835;50.068;8.154;2023-03-01T15:44:39;8.30;55.30
3638;DHT22;1835;50.068;8.154;2023-03-01T15:47:27;8.20;55.30
3638;DHT22;1835;50.068;8.154;2023-03-01T15:49:56;8.10;55.50
3638;DHT22;1835;50.068;8.154;2023-03-01T15:52:28;8.40;55.70
3638;DHT22;1835;50.068;8.154;2023-03-01T15:54:59;8.30;55.40
3638;DHT22;1835;50.068;8.154;2023-03-01T15:57:29;8.20;55.80
3638;DHT22;1835;50.068;8.154;2023-03-01T15:59:58;8.00;56.50
3638;DHT22;1835;50.068;8.154;2023-03-01T16:02:26;8.30;56.00
3638;DHT22;1835;50.068;8.154;2023-03-01T16:04:54;8.00;56.00
3638;DHT22;1835;50.068;8.154;2023-03-01T16:07:23;8.10;56.30
3638;DHT22;1835;50.068;8.154;2023-03-01T16:09:54;8.00;56.40
3638;DHT22;1835;50.068;8.154;2023-03-01T16:12:22;8.00;56.10
3638;DHT22;1835;50.068;8.154;2023-03-01T16:14:52;7.80;56.50
3638;DHT22;1835;50.068;8.154;2023-03-01T16:17:27;8.00;56.70
3638;DHT22;1835;50.068;8.154;2023-03-01T16:19:56;8.00;56.10
3638;DHT22;1835;50.068;8.154;2023-03-01T16:22:24;8.00;56.50
3638;DHT22;1835;50.068;8.154;2023-03-01T16:24:53;8.10;56.40
3638;DHT22;1835;50.068;8.154;2023-03-01T16:27:21;8.10;56.00
3638;DHT22;1835;50.068;8.154;2023-03-01T16:29:49;8.10;56.30
3638;DHT22;1835;50.068;8.154;2023-03-01T16:32:17;8.20;56.70
3638;DHT22;1835;50.068;8.154;2023-03-01T16:34:47;8.20;56.10
3638;DHT22;1835;50.068;8.154;2023-03-01T16:37:16;7.90;55.60
3638;DHT22;1835;50.068;8.154;2023-03-01T16:39:45;7.80;56.40
3638;DHT22;1835;50.068;8.154;2023-03-01T16:42:15;7.80;56.20
3638;DHT22;1835;50.068;8.154;2023-03-01T16:44:43;7.80;55.30
3638;DHT22;1835;50.068;8.154;2023-03-01T16:47:11;7.80;56.30
3638;DHT22;1835;50.068;8.154;2023-03-01T16:49:40;7.70;55.70
3638;DHT22;1835;50.068;8.154;2023-03-01T16:52:09;7.90;55.90
3638;DHT22;1835;50.068;8.154;2023-03-01T16:54:37;7.80;55.20
3638;DHT22;1835;50.068;8.154;2023-03-01T16:57:06;7.90;55.10
3638;DHT22;1835;50.068;8.154;2023-03-01T16:59:34;7.90;55.50